sensor_id;sensor_type;location;lat;lon;timestamp;P1;durP1;ratioP1;P2;durP2;ratioP2
41514;SDS011;27247;48.020;16.720;2023-08-17T00:02:59;12.50;;;10.43;;
41514;SDS011;27247;48.020;16.720;2023-08-17T00:07:10;16.10;;;10.47;;
41514;SDS011;27247;48.020;16.720;2023-08-17T00:11:20;13.70;;;10.47;;
41514;SDS011;27247;48.020;16.720;2023-08-17T00:15:30;15.93;;;11.38;;
41514;SDS011;27247;48.020;16.720;2023-08-17T00:19:42;14.48;;;10.75;;
41514;SDS011;27247;48.020;16.720;2023-08-17T00:23:52;14.38;;;11.27;;
41514;SDS011;27247;48.020;16.720;2023-08-17T00:28:03;16.40;;;10.80;;
41514;SDS011;27247;48.020;16.720;2023-08-17T00:32:13;18.13;;;11.07;;
41514;SDS011;27247;48.020;16.720;2023-08-17T00:36:24;14.73;;;10.83;;
41514;SDS011;27247;48.020;16.720;2023-08-17T00:40:34;16.13;;;10.47;;
41514;SDS011;27247;48.020;16.720;2023-08-17T00:44:44;16.67;;;10.02;;
41514;SDS011;27247;48.020;16.720;2023-08-17T00:48:55;12.53;;;9.67;;
41514;SDS011;27247;48.020;16.720;2023-08-17T00:53:06;13.48;;;10.68;;
41514;SDS011;27247;48.020;16.720;2023-08-17T00:57:23;15.82;;;9.90;;
41514;SDS011;27247;48.020;16.720;2023-08-17T01:01:33;15.77;;;9.75;;
41514;SDS011;27247;48.020;16.720;2023-08-17T01:05:43;11.03;;;9.00;;
41514;SDS011;27247;48.020;16.720;2023-08-17T01:09:54;11.23;;;8.45;;
41514;SDS011;27247;48.020;16.720;2023-08-17T01:14:05;18.70;;;11.25;;
41514;SDS011;27247;48.020;16.720;2023-08-17T01:18:23;17.73;;;12.10;;
41514;SDS011;27247;48.020;16.720;2023-08-17T01:22:40;19.60;;;13.02;;
41514;SDS011;27247;48.020;16.720;2023-08-17T01:26:52;18.38;;;11.70;;
41514;SDS011;27247;48.020;16.720;2023-08-17T01:31:11;18.50;;;13.20;;
41514;SDS011;27247;48.020;16.720;2023-08-17T01:36:42;19.38;;;14.18;;
41514;SDS011;27247;48.020;16.720;2023-08-17T01:40:32;21.10;;;15.50;;
41514;SDS011;27247;48.020;16.720;2023-08-17T01:44:44;21.15;;;14.48;;
41514;SDS011;27247;48.020;16.720;2023-08-17T01:48:54;15.45;;;11.68;;
41514;SDS011;27247;48.020;16.720;2023-08-17T01:53:06;16.25;;;13.32;;
41514;SDS011;27247;48.020;16.720;2023-08-17T01:57:16;16.95;;;12.93;;
41514;SDS011;27247;48.020;16.720;2023-08-17T02:01:26;22.90;;;15.40;;
41514;SDS011;27247;48.020;16.720;2023-08-17T02:05:38;18.10;;;13.73;;
41514;SDS011;27247;48.020;16.720;2023-08-17T02:09:48;16.07;;;13.87;;
41514;SDS011;27247;48.020;16.720;2023-08-17T02:13:58;14.30;;;12.43;;
41514;SDS011;27247;48.020;16.720;2023-08-17T02:18:09;14.77;;;11.98;;
41514;SDS011;27247;48.020;16.720;2023-08-17T02:22:19;20.35;;;12.95;;
41514;SDS011;27247;48.020;16.720;2023-08-17T02:26:29;14.23;;;11.80;;
41514;SDS011;27247;48.020;16.720;2023-08-17T02:30:40;19.70;;;11.75;;
41514;SDS011;27247;48.020;16.720;2023-08-17T02:34:51;14.30;;;11.60;;
41514;SDS011;27247;48.020;16.720;2023-08-17T02:39:01;13.03;;;11.63;;
41514;SDS011;27247;48.020;16.720;2023-08-17T02:43:13;19.73;;;10.73;;
41514;SDS011;27247;48.020;16.720;2023-08-17T02:47:23;13.40;;;9.77;;
41514;SDS011;27247;48.020;16.720;2023-08-17T02:51:33;12.50;;;9.07;;
41514;SDS011;27247;48.020;16.720;2023-08-17T02:55:44;11.90;;;10.40;;
41514;SDS011;27247;48.020;16.720;2023-08-17T02:59:54;9.57;;;8.57;;
41514;SDS011;27247;48.020;16.720;2023-08-17T03:04:04;13.73;;;9.73;;
41514;SDS011;27247;48.020;16.720;2023-08-17T03:08:15;11.82;;;9.65;;
41514;SDS011;27247;48.020;16.720;2023-08-17T03:12:25;11.53;;;10.07;;
41514;SDS011;27247;48.020;16.720;2023-08-17T03:16:35;11.50;;;9.37;;
41514;SDS011;27247;48.020;16.720;2023-08-17T03:20:46;10.77;;;9.57;;
41514;SDS011;27247;48.020;16.720;2023-08-17T03:24:56;12.87;;;10.30;;
41514;SDS011;27247;48.020;16.720;2023-08-17T03:29:06;12.57;;;9.25;;
41514;SDS011;27247;48.020;16.720;2023-08-17T03:33:18;13.60;;;9.02;;
41514;SDS011;27247;48.020;16.720;2023-08-17T03:37:28;12.87;;;9.27;;
41514;SDS011;27247;48.020;16.720;2023-08-17T03:41:39;10.52;;;7.88;;
41514;SDS011;27247;48.020;16.720;2023-08-17T03:45:49;8.93;;;8.05;;
41514;SDS011;27247;48.020;16.720;2023-08-17T03:49:59;10.70;;;8.33;;
41514;SDS011;27247;48.020;16.720;2023-08-17T03:54:11;11.77;;;9.13;;
41514;SDS011;27247;48.020;16.720;2023-08-17T03:58:22;10.48;;;9.38;;
41514;SDS011;27247;48.020;16.720;2023-08-17T04:02:33;9.43;;;8.10;;
41514;SDS011;27247;48.020;16.720;2023-08-17T04:06:43;11.13;;;9.30;;
41514;SDS011;27247;48.020;16.720;2023-08-17T04:10:53;11.53;;;10.17;;
41514;SDS011;27247;48.020;16.720;2023-08-17T04:15:04;12.63;;;9.20;;
41514;SDS011;27247;48.020;16.720;2023-08-17T04:19:15;13.18;;;10.05;;
41514;SDS011;27247;48.020;16.720;2023-08-17T04:23:25;15.60;;;10.53;;
41514;SDS011;27247;48.020;16.720;2023-08-17T04:27:35;11.13;;;9.33;;
41514;SDS011;27247;48.020;16.720;2023-08-17T04:31:46;11.73;;;8.60;;
41514;SDS011;27247;48.020;16.720;2023-08-17T04:35:56;9.70;;;8.48;;
41514;SDS011;27247;48.020;16.720;2023-08-17T04:40:09;10.05;;;8.82;;
41514;SDS011;27247;48.020;16.720;2023-08-17T04:44:20;11.60;;;9.65;;
41514;SDS011;27247;48.020;16.720;2023-08-17T04:48:30;14.07;;;10.00;;
41514;SDS011;27247;48.020;16.720;2023-08-17T04:52:40;14.63;;;10.83;;
41514;SDS011;27247;48.020;16.720;2023-08-17T04:56:51;11.40;;;9.90;;
41514;SDS011;27247;48.020;16.720;2023-08-17T05:01:01;15.53;;;10.27;;
41514;SDS011;27247;48.020;16.720;2023-08-17T05:05:12;16.13;;;10.18;;
41514;SDS011;27247;48.020;16.720;2023-08-17T05:09:23;12.73;;;9.07;;
41514;SDS011;27247;48.020;16.720;2023-08-17T05:13:33;10.90;;;9.77;;
41514;SDS011;27247;48.020;16.720;2023-08-17T05:17:44;10.80;;;9.43;;
41514;SDS011;27247;48.020;16.720;2023-08-17T05:21:54;14.40;;;9.27;;
41514;SDS011;27247;48.020;16.720;2023-08-17T05:26:04;10.55;;;8.98;;
41514;SDS011;27247;48.020;16.720;2023-08-17T05:30:15;12.53;;;9.77;;
41514;SDS011;27247;48.020;16.720;2023-08-17T05:34:25;14.70;;;12.10;;
41514;SDS011;27247;48.020;16.720;2023-08-17T05:38:36;14.15;;;11.75;;
41514;SDS011;27247;48.020;16.720;2023-08-17T05:42:46;11.32;;;10.05;;
41514;SDS011;27247;48.020;16.720;2023-08-17T05:46:56;13.20;;;11.47;;
41514;SDS011;27247;48.020;16.720;2023-08-17T05:51:07;14.67;;;12.10;;
41514;SDS011;27247;48.020;16.720;2023-08-17T05:55:17;11.90;;;10.10;;
41514;SDS011;27247;48.020;16.720;2023-08-17T05:59:27;16.17;;;10.68;;
41514;SDS011;27247;48.020;16.720;2023-08-17T06:03:38;14.70;;;11.63;;
41514;SDS011;27247;48.020;16.720;2023-08-17T06:07:48;15.23;;;12.77;;
41514;SDS011;27247;48.020;16.720;2023-08-17T06:11:59;19.83;;;15.80;;
41514;SDS011;27247;48.020;16.720;2023-08-17T06:16:09;22.92;;;17.38;;
41514;SDS011;27247;48.020;16.720;2023-08-17T06:20:20;22.73;;;16.33;;
41514;SDS011;27247;48.020;16.720;2023-08-17T06:24:30;20.10;;;16.38;;
41514;SDS011;27247;48.020;16.720;2023-08-17T06:28:41;22.05;;;16.20;;
41514;SDS011;27247;48.020;16.720;2023-08-17T06:32:52;18.35;;;15.82;;
41514;SDS011;27247;48.020;16.720;2023-08-17T06:37:02;21.23;;;16.08;;
41514;SDS011;27247;48.020;16.720;2023-08-17T06:41:13;19.05;;;15.82;;
41514;SDS011;27247;48.020;16.720;2023-08-17T06:45:24;23.08;;;17.90;;
41514;SDS011;27247;48.020;16.720;2023-08-17T06:49:35;18.10;;;15.93;;
41514;SDS011;27247;48.020;16.720;2023-08-17T06:53:45;19.65;;;15.60;;
41514;SDS011;27247;48.020;16.720;2023-08-17T06:57:56;23.97;;;17.27;;
41514;SDS011;27247;48.020;16.720;2023-08-17T07:02:07;20.02;;;17.77;;
41514;SDS011;27247;48.020;16.720;2023-08-17T07:06:17;17.90;;;15.80;;
41514;SDS011;27247;48.020;16.720;2023-08-17T07:10:28;19.90;;;16.67;;
41514;SDS011;27247;48.020;16.720;2023-08-17T07:14:38;23.47;;;19.23;;
41514;SDS011;27247;48.020;16.720;2023-08-17T07:18:48;19.70;;;16.57;;
41514;SDS011;27247;48.020;16.720;2023-08-17T07:22:59;18.73;;;15.60;;
41514;SDS011;27247;48.020;16.720;2023-08-17T07:27:09;19.35;;;16.17;;
41514;SDS011;27247;48.020;16.720;2023-08-17T07:31:20;24.00;;;16.70;;
41514;SDS011;27247;48.020;16.720;2023-08-17T07:35:30;21.17;;;16.45;;
41514;SDS011;27247;48.020;16.720;2023-08-17T07:39:41;20.83;;;16.98;;
41514;SDS011;27247;48.020;16.720;2023-08-17T07:43:51;22.33;;;19.03;;
41514;SDS011;27247;48.020;16.720;2023-08-17T07:48:01;21.63;;;17.88;;
41514;SDS011;27247;48.020;16.720;2023-08-17T07:52:12;21.75;;;18.30;;
41514;SDS011;27247;48.020;16.720;2023-08-17T07:56:22;28.33;;;17.98;;
41514;SDS011;27247;48.020;16.720;2023-08-17T08:00:33;20.43;;;18.10;;
41514;SDS011;27247;48.020;16.720;2023-08-17T08:04:43;26.52;;;19.27;;
41514;SDS011;27247;48.020;16.720;2023-08-17T08:08:53;20.33;;;17.20;;
41514;SDS011;27247;48.020;16.720;2023-08-17T08:13:04;21.90;;;17.88;;
41514;SDS011;27247;48.020;16.720;2023-08-17T08:17:14;20.65;;;17.17;;
41514;SDS011;27247;48.020;16.720;2023-08-17T08:21:25;24.83;;;17.53;;
41514;SDS011;27247;48.020;16.720;2023-08-17T08:25:37;16.80;;;13.95;;
41514;SDS011;27247;48.020;16.720;2023-08-17T08:29:48;22.80;;;16.48;;
41514;SDS011;27247;48.020;16.720;2023-08-17T08:33:58;17.92;;;16.10;;
41514;SDS011;27247;48.020;16.720;2023-08-17T08:38:09;19.02;;;15.88;;
41514;SDS011;27247;48.020;16.720;2023-08-17T08:42:20;23.77;;;18.13;;
41514;SDS011;27247;48.020;16.720;2023-08-17T08:46:31;19.38;;;17.20;;
41514;SDS011;27247;48.020;16.720;2023-08-17T08:50:43;20.00;;;16.23;;
41514;SDS011;27247;48.020;16.720;2023-08-17T08:54:56;24.48;;;17.98;;
41514;SDS011;27247;48.020;16.720;2023-08-17T08:59:08;21.23;;;15.55;;
41514;SDS011;27247;48.020;16.720;2023-08-17T09:03:20;22.25;;;17.52;;
41514;SDS011;27247;48.020;16.720;2023-08-17T09:07:31;20.13;;;17.27;;
41514;SDS011;27247;48.020;16.720;2023-08-17T09:11:43;21.15;;;15.98;;
41514;SDS011;27247;48.020;16.720;2023-08-17T09:15:53;22.85;;;15.93;;
41514;SDS011;27247;48.020;16.720;2023-08-17T09:20:04;21.95;;;18.08;;
41514;SDS011;27247;48.020;16.720;2023-08-17T09:24:17;16.40;;;14.73;;
41514;SDS011;27247;48.020;16.720;2023-08-17T09:28:27;17.10;;;15.23;;
41514;SDS011;27247;48.020;16.720;2023-08-17T09:32:38;18.05;;;13.55;;
41514;SDS011;27247;48.020;16.720;2023-08-17T09:36:48;10.98;;;9.68;;
41514;SDS011;27247;48.020;16.720;2023-08-17T09:40:59;12.23;;;9.97;;
41514;SDS011;27247;48.020;16.720;2023-08-17T09:45:10;15.52;;;11.95;;
41514;SDS011;27247;48.020;16.720;2023-08-17T09:49:22;16.43;;;12.00;;
41514;SDS011;27247;48.020;16.720;2023-08-17T09:53:36;12.27;;;10.93;;
41514;SDS011;27247;48.020;16.720;2023-08-17T09:57:50;11.18;;;10.05;;
41514;SDS011;27247;48.020;16.720;2023-08-17T10:02:01;16.98;;;11.75;;
41514;SDS011;27247;48.020;16.720;2023-08-17T10:06:20;13.45;;;10.15;;
41514;SDS011;27247;48.020;16.720;2023-08-17T10:10:34;15.10;;;11.88;;
41514;SDS011;27247;48.020;16.720;2023-08-17T10:14:54;15.18;;;12.43;;
41514;SDS011;27247;48.020;16.720;2023-08-17T10:23:34;18.48;;;14.13;;
41514;SDS011;27247;48.020;16.720;2023-08-17T10:27:45;17.52;;;13.80;;
41514;SDS011;27247;48.020;16.720;2023-08-17T10:31:57;17.42;;;12.57;;
41514;SDS011;27247;48.020;16.720;2023-08-17T10:36:12;18.98;;;14.43;;
41514;SDS011;27247;48.020;16.720;2023-08-17T10:40:28;19.88;;;15.55;;
41514;SDS011;27247;48.020;16.720;2023-08-17T10:44:47;17.50;;;14.95;;
41514;SDS011;27247;48.020;16.720;2023-08-17T10:49:00;17.77;;;14.88;;
41514;SDS011;27247;48.020;16.720;2023-08-17T10:53:14;16.70;;;14.82;;
41514;SDS011;27247;48.020;16.720;2023-08-17T10:57:37;14.32;;;10.88;;
41514;SDS011;27247;48.020;16.720;2023-08-17T11:01:49;17.05;;;13.40;;
41514;SDS011;27247;48.020;16.720;2023-08-17T11:06:13;16.27;;;12.25;;
41514;SDS011;27247;48.020;16.720;2023-08-17T11:10:28;13.45;;;10.75;;
41514;SDS011;27247;48.020;16.720;2023-08-17T11:14:39;12.07;;;9.95;;
41514;SDS011;27247;48.020;16.720;2023-08-17T11:18:49;11.40;;;8.40;;
41514;SDS011;27247;48.020;16.720;2023-08-17T11:23:02;10.73;;;9.73;;
41514;SDS011;27247;48.020;16.720;2023-08-17T11:27:13;9.40;;;7.50;;
41514;SDS011;27247;48.020;16.720;2023-08-17T11:31:24;8.38;;;6.68;;
41514;SDS011;27247;48.020;16.720;2023-08-17T11:35:36;9.68;;;8.70;;
41514;SDS011;27247;48.020;16.720;2023-08-17T11:39:46;11.05;;;8.55;;
41514;SDS011;27247;48.020;16.720;2023-08-17T11:43:57;10.03;;;6.57;;
41514;SDS011;27247;48.020;16.720;2023-08-17T11:48:08;7.72;;;6.25;;
41514;SDS011;27247;48.020;16.720;2023-08-17T11:52:19;7.78;;;5.70;;
41514;SDS011;27247;48.020;16.720;2023-08-17T11:56:29;6.60;;;6.00;;
41514;SDS011;27247;48.020;16.720;2023-08-17T12:00:41;6.93;;;5.83;;
41514;SDS011;27247;48.020;16.720;2023-08-17T12:04:55;6.93;;;5.28;;
41514;SDS011;27247;48.020;16.720;2023-08-17T12:09:06;5.97;;;5.30;;
41514;SDS011;27247;48.020;16.720;2023-08-17T12:13:16;6.63;;;6.03;;
41514;SDS011;27247;48.020;16.720;2023-08-17T12:17:26;6.93;;;5.40;;
41514;SDS011;27247;48.020;16.720;2023-08-17T12:21:37;5.77;;;5.13;;
41514;SDS011;27247;48.020;16.720;2023-08-17T12:25:52;7.50;;;5.93;;
41514;SDS011;27247;48.020;16.720;2023-08-17T12:30:11;10.37;;;5.97;;
41514;SDS011;27247;48.020;16.720;2023-08-17T12:34:23;8.57;;;6.57;;
41514;SDS011;27247;48.020;16.720;2023-08-17T12:38:33;8.17;;;6.67;;
41514;SDS011;27247;48.020;16.720;2023-08-17T12:42:43;8.25;;;7.45;;
41514;SDS011;27247;48.020;16.720;2023-08-17T12:46:54;10.73;;;7.93;;
41514;SDS011;27247;48.020;16.720;2023-08-17T12:51:04;9.87;;;7.13;;
41514;SDS011;27247;48.020;16.720;2023-08-17T12:55:15;11.15;;;7.78;;
41514;SDS011;27247;48.020;16.720;2023-08-17T12:59:25;8.73;;;7.83;;
41514;SDS011;27247;48.020;16.720;2023-08-17T13:03:36;8.82;;;7.57;;
41514;SDS011;27247;48.020;16.720;2023-08-17T13:07:46;10.87;;;7.23;;
41514;SDS011;27247;48.020;16.720;2023-08-17T13:11:56;7.70;;;6.77;;
41514;SDS011;27247;48.020;16.720;2023-08-17T13:16:14;9.07;;;7.20;;
41514;SDS011;27247;48.020;16.720;2023-08-17T13:20:25;11.33;;;7.23;;
41514;SDS011;27247;48.020;16.720;2023-08-17T13:24:36;8.35;;;7.35;;
41514;SDS011;27247;48.020;16.720;2023-08-17T13:28:46;10.97;;;8.63;;
41514;SDS011;27247;48.020;16.720;2023-08-17T13:32:57;8.37;;;6.80;;
41514;SDS011;27247;48.020;16.720;2023-08-17T13:37:07;10.32;;;7.88;;
41514;SDS011;27247;48.020;16.720;2023-08-17T13:41:18;9.02;;;7.07;;
41514;SDS011;27247;48.020;16.720;2023-08-17T13:45:28;9.13;;;8.20;;
41514;SDS011;27247;48.020;16.720;2023-08-17T13:49:39;10.10;;;8.98;;
41514;SDS011;27247;48.020;16.720;2023-08-17T13:53:49;11.27;;;8.45;;
41514;SDS011;27247;48.020;16.720;2023-08-17T13:58:00;10.17;;;9.13;;
41514;SDS011;27247;48.020;16.720;2023-08-17T14:02:10;9.83;;;8.93;;
41514;SDS011;27247;48.020;16.720;2023-08-17T14:06:20;9.63;;;8.50;;
41514;SDS011;27247;48.020;16.720;2023-08-17T14:10:32;8.67;;;7.83;;
41514;SDS011;27247;48.020;16.720;2023-08-17T14:14:43;8.43;;;7.57;;
41514;SDS011;27247;48.020;16.720;2023-08-17T14:18:53;9.75;;;8.02;;
41514;SDS011;27247;48.020;16.720;2023-08-17T14:23:04;8.45;;;7.57;;
41514;SDS011;27247;48.020;16.720;2023-08-17T14:27:15;10.10;;;8.02;;
41514;SDS011;27247;48.020;16.720;2023-08-17T14:31:25;9.60;;;8.20;;
41514;SDS011;27247;48.020;16.720;2023-08-17T14:35:35;8.30;;;7.10;;
41514;SDS011;27247;48.020;16.720;2023-08-17T14:39:46;7.70;;;6.90;;
41514;SDS011;27247;48.020;16.720;2023-08-17T14:43:57;9.40;;;7.97;;
41514;SDS011;27247;48.020;16.720;2023-08-17T14:48:08;10.27;;;7.03;;
41514;SDS011;27247;48.020;16.720;2023-08-17T14:52:19;8.23;;;7.43;;
41514;SDS011;27247;48.020;16.720;2023-08-17T14:56:30;9.07;;;6.80;;
41514;SDS011;27247;48.020;16.720;2023-08-17T15:00:41;11.23;;;6.97;;
41514;SDS011;27247;48.020;16.720;2023-08-17T15:04:52;8.75;;;7.40;;
41514;SDS011;27247;48.020;16.720;2023-08-17T15:09:02;8.52;;;6.97;;
41514;SDS011;27247;48.020;16.720;2023-08-17T15:13:13;7.47;;;6.78;;
41514;SDS011;27247;48.020;16.720;2023-08-17T15:17:25;7.15;;;6.47;;
41514;SDS011;27247;48.020;16.720;2023-08-17T15:21:35;7.45;;;6.70;;
41514;SDS011;27247;48.020;16.720;2023-08-17T15:25:45;9.00;;;6.30;;
41514;SDS011;27247;48.020;16.720;2023-08-17T15:29:56;9.77;;;6.77;;
41514;SDS011;27247;48.020;16.720;2023-08-17T15:34:06;11.85;;;6.63;;
41514;SDS011;27247;48.020;16.720;2023-08-17T15:38:17;9.30;;;6.97;;
41514;SDS011;27247;48.020;16.720;2023-08-17T15:42:27;9.52;;;6.72;;
41514;SDS011;27247;48.020;16.720;2023-08-17T15:46:37;12.27;;;6.83;;
41514;SDS011;27247;48.020;16.720;2023-08-17T15:50:48;7.18;;;6.25;;
41514;SDS011;27247;48.020;16.720;2023-08-17T15:54:58;8.20;;;6.07;;
41514;SDS011;27247;48.020;16.720;2023-08-17T15:59:09;6.97;;;6.23;;
41514;SDS011;27247;48.020;16.720;2023-08-17T16:03:19;6.50;;;5.75;;
41514;SDS011;27247;48.020;16.720;2023-08-17T16:07:29;9.07;;;6.00;;
41514;SDS011;27247;48.020;16.720;2023-08-17T16:11:40;6.73;;;6.00;;
41514;SDS011;27247;48.020;16.720;2023-08-17T16:15:50;10.13;;;6.77;;
41514;SDS011;27247;48.020;16.720;2023-08-17T16:20:00;8.93;;;6.63;;
41514;SDS011;27247;48.020;16.720;2023-08-17T16:24:11;7.82;;;7.10;;
41514;SDS011;27247;48.020;16.720;2023-08-17T16:28:21;7.70;;;6.70;;
41514;SDS011;27247;48.020;16.720;2023-08-17T16:32:32;8.13;;;6.83;;
41514;SDS011;27247;48.020;16.720;2023-08-17T16:36:42;9.13;;;7.03;;
41514;SDS011;27247;48.020;16.720;2023-08-17T16:40:53;8.70;;;6.90;;
41514;SDS011;27247;48.020;16.720;2023-08-17T16:45:03;7.38;;;6.70;;
41514;SDS011;27247;48.020;16.720;2023-08-17T16:49:14;10.50;;;7.25;;
41514;SDS011;27247;48.020;16.720;2023-08-17T16:53:25;9.50;;;8.45;;
41514;SDS011;27247;48.020;16.720;2023-08-17T16:57:35;10.25;;;8.93;;
41514;SDS011;27247;48.020;16.720;2023-08-17T17:01:45;10.63;;;9.07;;
41514;SDS011;27247;48.020;16.720;2023-08-17T17:05:56;11.60;;;9.80;;
41514;SDS011;27247;48.020;16.720;2023-08-17T17:10:07;12.52;;;9.80;;
41514;SDS011;27247;48.020;16.720;2023-08-17T17:14:18;11.45;;;9.30;;
41514;SDS011;27247;48.020;16.720;2023-08-17T17:18:29;12.70;;;9.75;;
41514;SDS011;27247;48.020;16.720;2023-08-17T17:22:40;10.73;;;9.35;;
41514;SDS011;27247;48.020;16.720;2023-08-17T17:26:50;12.30;;;8.95;;
41514;SDS011;27247;48.020;16.720;2023-08-17T17:31:04;10.95;;;8.93;;
41514;SDS011;27247;48.020;16.720;2023-08-17T17:35:15;12.82;;;9.00;;
41514;SDS011;27247;48.020;16.720;2023-08-17T17:39:26;10.85;;;8.50;;
41514;SDS011;27247;48.020;16.720;2023-08-17T17:43:36;9.73;;;8.73;;
41514;SDS011;27247;48.020;16.720;2023-08-17T17:47:47;10.48;;;7.78;;
41514;SDS011;27247;48.020;16.720;2023-08-17T17:51:57;10.88;;;9.15;;
41514;SDS011;27247;48.020;16.720;2023-08-17T17:56:10;9.48;;;8.50;;
41514;SDS011;27247;48.020;16.720;2023-08-17T18:00:22;10.65;;;8.40;;
41514;SDS011;27247;48.020;16.720;2023-08-17T18:04:33;8.52;;;7.72;;
41514;SDS011;27247;48.020;16.720;2023-08-17T18:08:44;8.80;;;7.90;;
41514;SDS011;27247;48.020;16.720;2023-08-17T18:12:54;8.88;;;7.97;;
41514;SDS011;27247;48.020;16.720;2023-08-17T18:17:05;8.75;;;7.85;;
41514;SDS011;27247;48.020;16.720;2023-08-17T18:21:17;8.50;;;7.70;;
41514;SDS011;27247;48.020;16.720;2023-08-17T18:25:30;8.15;;;7.35;;
41514;SDS011;27247;48.020;16.720;2023-08-17T18:29:41;10.60;;;8.13;;
41514;SDS011;27247;48.020;16.720;2023-08-17T18:33:52;9.73;;;7.80;;
41514;SDS011;27247;48.020;16.720;2023-08-17T18:38:03;8.77;;;7.78;;
41514;SDS011;27247;48.020;16.720;2023-08-17T18:42:14;10.50;;;8.07;;
41514;SDS011;27247;48.020;16.720;2023-08-17T18:46:25;9.00;;;7.80;;
41514;SDS011;27247;48.020;16.720;2023-08-17T18:50:35;9.07;;;7.90;;
41514;SDS011;27247;48.020;16.720;2023-08-17T18:54:59;9.32;;;8.02;;
41514;SDS011;27247;48.020;16.720;2023-08-17T19:03:27;10.70;;;8.32;;
41514;SDS011;27247;48.020;16.720;2023-08-17T19:07:40;8.43;;;7.20;;
41514;SDS011;27247;48.020;16.720;2023-08-17T19:11:50;8.30;;;7.53;;
41514;SDS011;27247;48.020;16.720;2023-08-17T19:16:01;9.57;;;7.80;;
41514;SDS011;27247;48.020;16.720;2023-08-17T19:20:15;8.43;;;7.63;;
41514;SDS011;27247;48.020;16.720;2023-08-17T19:24:28;8.90;;;7.72;;
41514;SDS011;27247;48.020;16.720;2023-08-17T19:28:39;9.75;;;8.18;;
41514;SDS011;27247;48.020;16.720;2023-08-17T19:32:55;8.55;;;7.75;;
41514;SDS011;27247;48.020;16.720;2023-08-17T19:37:07;8.63;;;7.60;;
41514;SDS011;27247;48.020;16.720;2023-08-17T19:41:18;10.23;;;7.28;;
41514;SDS011;27247;48.020;16.720;2023-08-17T19:45:29;9.60;;;8.68;;
41514;SDS011;27247;48.020;16.720;2023-08-17T19:49:40;12.70;;;8.52;;
41514;SDS011;27247;48.020;16.720;2023-08-17T19:53:51;10.52;;;8.73;;
41514;SDS011;27247;48.020;16.720;2023-08-17T19:58:02;9.45;;;7.78;;
41514;SDS011;27247;48.020;16.720;2023-08-17T20:02:13;11.85;;;9.70;;
41514;SDS011;27247;48.020;16.720;2023-08-17T20:06:24;9.38;;;8.27;;
41514;SDS011;27247;48.020;16.720;2023-08-17T20:10:35;10.05;;;9.00;;
41514;SDS011;27247;48.020;16.720;2023-08-17T20:14:46;9.30;;;8.40;;
41514;SDS011;27247;48.020;16.720;2023-08-17T20:18:57;10.45;;;9.32;;
41514;SDS011;27247;48.020;16.720;2023-08-17T20:23:07;9.35;;;7.72;;
41514;SDS011;27247;48.020;16.720;2023-08-17T20:27:18;10.25;;;8.38;;
41514;SDS011;27247;48.020;16.720;2023-08-17T20:31:29;11.30;;;9.02;;
41514;SDS011;27247;48.020;16.720;2023-08-17T20:35:39;10.88;;;9.75;;
41514;SDS011;27247;48.020;16.720;2023-08-17T20:39:50;12.18;;;9.50;;
41514;SDS011;27247;48.020;16.720;2023-08-17T20:44:02;10.25;;;9.27;;
41514;SDS011;27247;48.020;16.720;2023-08-17T20:48:13;10.95;;;9.48;;
41514;SDS011;27247;48.020;16.720;2023-08-17T20:52:23;10.48;;;9.38;;
41514;SDS011;27247;48.020;16.720;2023-08-17T20:56:34;11.00;;;9.65;;
41514;SDS011;27247;48.020;16.720;2023-08-17T21:00:45;10.23;;;9.05;;
41514;SDS011;27247;48.020;16.720;2023-08-17T21:04:55;12.63;;;10.00;;
41514;SDS011;27247;48.020;16.720;2023-08-17T21:09:05;15.87;;;10.63;;
41514;SDS011;27247;48.020;16.720;2023-08-17T21:13:19;11.35;;;9.95;;
41514;SDS011;27247;48.020;16.720;2023-08-17T21:17:30;11.33;;;10.23;;
41514;SDS011;27247;48.020;16.720;2023-08-17T21:21:40;12.80;;;9.63;;
41514;SDS011;27247;48.020;16.720;2023-08-17T21:25:51;12.20;;;10.60;;
41514;SDS011;27247;48.020;16.720;2023-08-17T21:30:01;12.98;;;11.48;;
41514;SDS011;27247;48.020;16.720;2023-08-17T21:34:13;17.48;;;14.38;;
41514;SDS011;27247;48.020;16.720;2023-08-17T21:38:25;18.15;;;14.10;;
41514;SDS011;27247;48.020;16.720;2023-08-17T21:42:36;15.45;;;13.85;;
41514;SDS011;27247;48.020;16.720;2023-08-17T21:46:47;15.25;;;12.82;;
41514;SDS011;27247;48.020;16.720;2023-08-17T21:51:00;15.52;;;13.13;;
41514;SDS011;27247;48.020;16.720;2023-08-17T21:55:11;15.75;;;10.63;;
41514;SDS011;27247;48.020;16.720;2023-08-17T21:59:22;14.50;;;12.80;;
41514;SDS011;27247;48.020;16.720;2023-08-17T22:03:32;12.93;;;11.63;;
41514;SDS011;27247;48.020;16.720;2023-08-17T22:07:42;16.03;;;13.23;;
41514;SDS011;27247;48.020;16.720;2023-08-17T22:11:53;13.93;;;12.20;;
41514;SDS011;27247;48.020;16.720;2023-08-17T22:16:03;13.73;;;12.43;;
41514;SDS011;27247;48.020;16.720;2023-08-17T22:20:14;13.93;;;11.88;;
41514;SDS011;27247;48.020;16.720;2023-08-17T22:24:24;11.05;;;9.88;;
41514;SDS011;27247;48.020;16.720;2023-08-17T22:28:34;16.80;;;13.03;;
41514;SDS011;27247;48.020;16.720;2023-08-17T22:32:45;16.73;;;14.43;;
41514;SDS011;27247;48.020;16.720;2023-08-17T22:36:56;13.13;;;11.77;;
41514;SDS011;27247;48.020;16.720;2023-08-17T22:41:06;15.50;;;12.60;;
41514;SDS011;27247;48.020;16.720;2023-08-17T22:45:16;12.70;;;11.40;;
41514;SDS011;27247;48.020;16.720;2023-08-17T22:49:27;12.57;;;11.38;;
41514;SDS011;27247;48.020;16.720;2023-08-17T22:53:37;13.23;;;10.73;;
41514;SDS011;27247;48.020;16.720;2023-08-17T22:57:47;12.93;;;10.73;;
41514;SDS011;27247;48.020;16.720;2023-08-17T23:01:58;12.87;;;10.27;;
41514;SDS011;27247;48.020;16.720;2023-08-17T23:06:08;12.80;;;9.82;;
41514;SDS011;27247;48.020;16.720;2023-08-17T23:10:18;12.20;;;10.63;;
41514;SDS011;27247;48.020;16.720;2023-08-17T23:14:33;14.57;;;10.53;;
41514;SDS011;27247;48.020;16.720;2023-08-17T23:18:44;10.82;;;9.82;;
41514;SDS011;27247;48.020;16.720;2023-08-17T23:22:54;11.63;;;9.57;;
41514;SDS011;27247;48.020;16.720;2023-08-17T23:27:04;11.80;;;10.60;;
41514;SDS011;27247;48.020;16.720;2023-08-17T23:31:17;16.25;;;9.40;;
41514;SDS011;27247;48.020;16.720;2023-08-17T23:35:28;10.95;;;9.63;;
41514;SDS011;27247;48.020;16.720;2023-08-17T23:39:38;14.97;;;12.20;;
41514;SDS011;27247;48.020;16.720;2023-08-17T23:43:49;12.30;;;11.00;;
41514;SDS011;27247;48.020;16.720;2023-08-17T23:47:59;12.00;;;10.77;;
41514;SDS011;27247;48.020;16.720;2023-08-17T23:52:09;14.10;;;11.43;;
41514;SDS011;27247;48.020;16.720;2023-08-17T23:56:20;11.37;;;10.17;;
